sensor_id;sensor_type;location;lat;lon;timestamp;pressure;altitude;pressure_sealevel;temperature;humidity
76424;BME280;65257;52.104;4.268;2023-03-19T00:00:41;100980.94;;;10.94;100.00
76424;BME280;65257;52.104;4.268;2023-03-19T00:03:10;100984.28;;;10.92;100.00
76424;BME280;65257;52.104;4.268;2023-03-19T00:05:35;100987.94;;;10.98;100.00
76424;BME280;65257;52.104;4.268;2023-03-19T00:08:02;100988.81;;;10.99;100.00
76424;BME280;65257;52.104;4.268;2023-03-19T00:10:27;100990.53;;;11.00;100.00
76424;BME280;65257;52.104;4.268;2023-03-19T00:12:53;100988.06;;;11.01;100.00
76424;BME280;65257;52.104;4.268;2023-03-19T00:15:18;100992.19;;;10.98;100.00
76424;BME280;65257;52.104;4.268;2023-03-19T00:17:43;100991.88;;;10.89;100.00
76424;BME280;65257;52.104;4.268;2023-03-19T00:20:10;100999.44;;;10.86;100.00
76424;BME280;65257;52.104;4.268;2023-03-19T00:22:37;101001.81;;;10.81;100.00
76424;BME280;65257;52.104;4.268;2023-03-19T00:25:06;100998.28;;;10.78;100.00
76424;BME280;65257;52.104;4.268;2023-03-19T00:27:36;101006.56;;;10.71;100.00
76424;BME280;65257;52.104;4.268;2023-03-19T00:30:03;101011.44;;;10.64;100.00
76424;BME280;65257;52.104;4.268;2023-03-19T00:32:49;101016.09;;;10.52;100.00
76424;BME280;65257;52.104;4.268;2023-03-19T00:35:15;101012.50;;;10.47;100.00
76424;BME280;65257;52.104;4.268;2023-03-19T00:37:49;101019.47;;;10.51;100.00
76424;BME280;65257;52.104;4.268;2023-03-19T00:40:18;101015.84;;;10.46;100.00
76424;BME280;65257;52.104;4.268;2023-03-19T00:42:47;101016.38;;;10.38;100.00
76424;BME280;65257;52.104;4.268;2023-03-19T00:45:13;101018.00;;;10.36;100.00
76424;BME280;65257;52.104;4.268;2023-03-19T00:47:38;101012.53;;;10.27;100.00
76424;BME280;65257;52.104;4.268;2023-03-19T00:50:04;101030.53;;;10.30;100.00
76424;BME280;65257;52.104;4.268;2023-03-19T00:52:30;101023.41;;;10.21;100.00
76424;BME280;65257;52.104;4.268;2023-03-19T00:54:56;101024.06;;;10.17;100.00
76424;BME280;65257;52.104;4.268;2023-03-19T00:57:22;101021.00;;;10.05;100.00
76424;BME280;65257;52.104;4.268;2023-03-19T00:59:51;101025.31;;;10.06;100.00
76424;BME280;65257;52.104;4.268;2023-03-19T01:02:20;101018.16;;;9.97;100.00
76424;BME280;65257;52.104;4.268;2023-03-19T01:04:49;101019.66;;;9.92;100.00
76424;BME280;65257;52.104;4.268;2023-03-19T01:07:15;101025.25;;;9.84;100.00
76424;BME280;65257;52.104;4.268;2023-03-19T01:09:41;101018.84;;;9.73;100.00
76424;BME280;65257;52.104;4.268;2023-03-19T01:12:09;101020.88;;;9.61;100.00
76424;BME280;65257;52.104;4.268;2023-03-19T01:14:35;101027.47;;;9.56;100.00
76424;BME280;65257;52.104;4.268;2023-03-19T01:17:00;101037.69;;;9.56;100.00
76424;BME280;65257;52.104;4.268;2023-03-19T01:19:26;101035.69;;;9.49;100.00
76424;BME280;65257;52.104;4.268;2023-03-19T01:21:55;101033.88;;;9.46;100.00
76424;BME280;65257;52.104;4.268;2023-03-19T01:24:32;101031.63;;;9.33;100.00
76424;BME280;65257;52.104;4.268;2023-03-19T01:26:57;101029.94;;;9.33;100.00
76424;BME280;65257;52.104;4.268;2023-03-19T01:29:23;101028.94;;;9.30;100.00
76424;BME280;65257;52.104;4.268;2023-03-19T01:31:51;101027.34;;;9.32;100.00
76424;BME280;65257;52.104;4.268;2023-03-19T01:34:17;101024.69;;;9.30;100.00
76424;BME280;65257;52.104;4.268;2023-03-19T01:36:42;101020.94;;;9.22;100.00
76424;BME280;65257;52.104;4.268;2023-03-19T01:39:08;101034.94;;;9.11;100.00
76424;BME280;65257;52.104;4.268;2023-03-19T01:41:34;101035.00;;;9.13;100.00
76424;BME280;65257;52.104;4.268;2023-03-19T01:44:00;101039.56;;;9.01;100.00
76424;BME280;65257;52.104;4.268;2023-03-19T01:46:35;101043.78;;;9.00;100.00
76424;BME280;65257;52.104;4.268;2023-03-19T01:49:04;101033.16;;;8.91;100.00
76424;BME280;65257;52.104;4.268;2023-03-19T01:51:38;101028.88;;;8.90;100.00
76424;BME280;65257;52.104;4.268;2023-03-19T01:54:12;101021.69;;;8.81;100.00
76424;BME280;65257;52.104;4.268;2023-03-19T01:56:39;101029.69;;;8.89;100.00
76424;BME280;65257;52.104;4.268;2023-03-19T01:59:08;101034.63;;;8.86;100.00
76424;BME280;65257;52.104;4.268;2023-03-19T02:01:42;101028.69;;;8.86;100.00
76424;BME280;65257;52.104;4.268;2023-03-19T02:04:12;101038.16;;;8.88;100.00
76424;BME280;65257;52.104;4.268;2023-03-19T02:06:42;101042.28;;;8.86;100.00
76424;BME280;65257;52.104;4.268;2023-03-19T02:09:13;101038.16;;;8.88;100.00
76424;BME280;65257;52.104;4.268;2023-03-19T02:11:43;101031.88;;;8.81;100.00
76424;BME280;65257;52.104;4.268;2023-03-19T02:14:10;101037.72;;;8.79;100.00
76424;BME280;65257;52.104;4.268;2023-03-19T02:16:37;101040.81;;;8.91;100.00
76424;BME280;65257;52.104;4.268;2023-03-19T02:19:07;101040.91;;;8.93;100.00
76424;BME280;65257;52.104;4.268;2023-03-19T02:21:36;101042.03;;;8.99;100.00
76424;BME280;65257;52.104;4.268;2023-03-19T02:24:25;101036.69;;;8.93;100.00
76424;BME280;65257;52.104;4.268;2023-03-19T02:27:01;101039.81;;;9.07;100.00
76424;BME280;65257;52.104;4.268;2023-03-19T02:29:29;101032.84;;;9.03;100.00
76424;BME280;65257;52.104;4.268;2023-03-19T02:31:55;101039.06;;;9.09;100.00
76424;BME280;65257;52.104;4.268;2023-03-19T02:36:59;101044.69;;;9.01;100.00
76424;BME280;65257;52.104;4.268;2023-03-19T02:39:31;101045.81;;;9.07;100.00
76424;BME280;65257;52.104;4.268;2023-03-19T02:41:59;101057.88;;;8.92;100.00
76424;BME280;65257;52.104;4.268;2023-03-19T02:44:25;101053.56;;;8.91;100.00
76424;BME280;65257;52.104;4.268;2023-03-19T02:46:57;101049.84;;;8.83;100.00
76424;BME280;65257;52.104;4.268;2023-03-19T02:49:23;101048.28;;;8.87;100.00
76424;BME280;65257;52.104;4.268;2023-03-19T02:51:49;101046.88;;;8.93;100.00
76424;BME280;65257;52.104;4.268;2023-03-19T02:54:20;101040.16;;;8.95;100.00
76424;BME280;65257;52.104;4.268;2023-03-19T02:56:46;101044.97;;;8.89;100.00
76424;BME280;65257;52.104;4.268;2023-03-19T02:59:22;101034.13;;;8.93;100.00
76424;BME280;65257;52.104;4.268;2023-03-19T03:01:47;101046.59;;;8.87;100.00
76424;BME280;65257;52.104;4.268;2023-03-19T03:04:12;101039.19;;;8.74;100.00
76424;BME280;65257;52.104;4.268;2023-03-19T03:06:42;101031.41;;;8.71;100.00
76424;BME280;65257;52.104;4.268;2023-03-19T03:09:12;101038.13;;;8.69;100.00
76424;BME280;65257;52.104;4.268;2023-03-19T03:11:39;101040.47;;;8.64;100.00
76424;BME280;65257;52.104;4.268;2023-03-19T03:14:06;101037.31;;;8.70;100.00
76424;BME280;65257;52.104;4.268;2023-03-19T03:16:32;101039.19;;;8.74;100.00
76424;BME280;65257;52.104;4.268;2023-03-19T03:18:58;101039.50;;;8.80;100.00
76424;BME280;65257;52.104;4.268;2023-03-19T03:21:24;101047.47;;;8.88;100.00
76424;BME280;65257;52.104;4.268;2023-03-19T03:23:50;101049.00;;;8.84;100.00
76424;BME280;65257;52.104;4.268;2023-03-19T03:26:16;101052.50;;;8.86;100.00
76424;BME280;65257;52.104;4.268;2023-03-19T03:28:42;101054.44;;;8.92;100.00
76424;BME280;65257;52.104;4.268;2023-03-19T03:31:08;101044.84;;;8.86;100.00
76424;BME280;65257;52.104;4.268;2023-03-19T03:33:34;101049.00;;;8.84;100.00
76424;BME280;65257;52.104;4.268;2023-03-19T03:35:59;101044.09;;;8.69;100.00
76424;BME280;65257;52.104;4.268;2023-03-19T03:38:25;101046.50;;;8.66;100.00
76424;BME280;65257;52.104;4.268;2023-03-19T03:40:51;101056.34;;;8.59;100.00
76424;BME280;65257;52.104;4.268;2023-03-19T03:43:17;101063.44;;;8.47;100.00
76424;BME280;65257;52.104;4.268;2023-03-19T03:45:44;101066.94;;;8.49;100.00
76424;BME280;65257;52.104;4.268;2023-03-19T03:48:10;101072.41;;;8.39;100.00
76424;BME280;65257;52.104;4.268;2023-03-19T03:50:36;101075.38;;;8.48;100.00
76424;BME280;65257;52.104;4.268;2023-03-19T03:53:02;101073.50;;;8.44;100.00
76424;BME280;65257;52.104;4.268;2023-03-19T03:55:27;101073.19;;;8.38;100.00
76424;BME280;65257;52.104;4.268;2023-03-19T03:57:53;101072.94;;;8.32;100.00
76424;BME280;65257;52.104;4.268;2023-03-19T04:00:21;101074.94;;;8.39;100.00
76424;BME280;65257;52.104;4.268;2023-03-19T04:02:48;101075.91;;;8.25;100.00
76424;BME280;65257;52.104;4.268;2023-03-19T04:05:15;101072.28;;;8.19;100.00
76424;BME280;65257;52.104;4.268;2023-03-19T04:07:46;101066.34;;;8.19;100.00
76424;BME280;65257;52.104;4.268;2023-03-19T04:10:15;101069.47;;;8.13;100.00
76424;BME280;65257;52.104;4.268;2023-03-19T04:12:49;101072.16;;;8.16;100.00
76424;BME280;65257;52.104;4.268;2023-03-19T04:15:15;101060.38;;;8.18;100.00
76424;BME280;65257;52.104;4.268;2023-03-19T04:17:42;101056.53;;;8.27;100.00
76424;BME280;65257;52.104;4.268;2023-03-19T04:20:09;101057.28;;;8.26;100.00
76424;BME280;65257;52.104;4.268;2023-03-19T04:22:35;101064.19;;;8.27;100.00
76424;BME280;65257;52.104;4.268;2023-03-19T04:25:00;101069.41;;;8.30;100.00
76424;BME280;65257;52.104;4.268;2023-03-19T04:27:26;101063.47;;;8.29;100.00
76424;BME280;65257;52.104;4.268;2023-03-19T04:29:55;101070.63;;;8.38;100.00
76424;BME280;65257;52.104;4.268;2023-03-19T04:32:20;101073.69;;;8.48;100.00
76424;BME280;65257;52.104;4.268;2023-03-19T04:34:46;101084.84;;;8.33;100.00
76424;BME280;65257;52.104;4.268;2023-03-19T04:37:12;101090.41;;;8.42;100.00
76424;BME280;65257;52.104;4.268;2023-03-19T04:39:37;101090.41;;;8.42;100.00
76424;BME280;65257;52.104;4.268;2023-03-19T04:42:04;101098.41;;;8.32;100.00
76424;BME280;65257;52.104;4.268;2023-03-19T04:44:30;101104.16;;;8.28;100.00
76424;BME280;65257;52.104;4.268;2023-03-19T04:47:14;101109.25;;;8.28;100.00
76424;BME280;65257;52.104;4.268;2023-03-19T04:49:41;101116.59;;;8.22;100.00
76424;BME280;65257;52.104;4.268;2023-03-19T04:52:10;101103.88;;;8.05;100.00
76424;BME280;65257;52.104;4.268;2023-03-19T04:54:35;101113.34;;;8.08;100.00
76424;BME280;65257;52.104;4.268;2023-03-19T04:57:03;101109.69;;;8.03;100.00
76424;BME280;65257;52.104;4.268;2023-03-19T04:59:32;101106.66;;;8.10;100.00
76424;BME280;65257;52.104;4.268;2023-03-19T05:01:57;101114.06;;;8.05;100.00
76424;BME280;65257;52.104;4.268;2023-03-19T05:04:29;101111.44;;;8.04;100.00
76424;BME280;65257;52.104;4.268;2023-03-19T05:07:03;101114.66;;;8.17;100.00
76424;BME280;65257;52.104;4.268;2023-03-19T05:09:29;101115.22;;;8.12;100.00
76424;BME280;65257;52.104;4.268;2023-03-19T05:11:56;101119.75;;;8.17;100.00
76424;BME280;65257;52.104;4.268;2023-03-19T05:14:23;101123.56;;;8.26;100.00
76424;BME280;65257;52.104;4.268;2023-03-19T05:16:52;101120.25;;;8.27;100.00
76424;BME280;65257;52.104;4.268;2023-03-19T05:19:17;101128.50;;;8.23;100.00
76424;BME280;65257;52.104;4.268;2023-03-19T05:21:42;101130.72;;;8.33;100.00
76424;BME280;65257;52.104;4.268;2023-03-19T05:24:15;101122.00;;;8.28;100.00
76424;BME280;65257;52.104;4.268;2023-03-19T05:26:41;101118.47;;;8.26;100.00
76424;BME280;65257;52.104;4.268;2023-03-19T05:29:06;101117.72;;;8.27;100.00
76424;BME280;65257;52.104;4.268;2023-03-19T05:31:42;101122.88;;;8.28;100.00
76424;BME280;65257;52.104;4.268;2023-03-19T05:34:08;101116.53;;;8.38;100.00
76424;BME280;65257;52.104;4.268;2023-03-19T05:36:33;101122.44;;;8.37;100.00
76424;BME280;65257;52.104;4.268;2023-03-19T05:39:09;101133.16;;;8.47;100.00
76424;BME280;65257;52.104;4.268;2023-03-19T05:41:41;101131.47;;;8.48;100.00
76424;BME280;65257;52.104;4.268;2023-03-19T05:44:06;101130.31;;;8.41;100.00
76424;BME280;65257;52.104;4.268;2023-03-19T05:46:34;101133.06;;;8.46;100.00
76424;BME280;65257;52.104;4.268;2023-03-19T05:49:00;101129.28;;;8.38;100.00
76424;BME280;65257;52.104;4.268;2023-03-19T05:51:25;101132.50;;;8.51;100.00
76424;BME280;65257;52.104;4.268;2023-03-19T05:53:51;101131.91;;;8.57;100.00
76424;BME280;65257;52.104;4.268;2023-03-19T05:56:17;101128.28;;;8.52;100.00
76424;BME280;65257;52.104;4.268;2023-03-19T05:58:44;101129.75;;;8.47;100.00
76424;BME280;65257;52.104;4.268;2023-03-19T06:01:10;101135.25;;;8.56;100.00
76424;BME280;65257;52.104;4.268;2023-03-19T06:03:37;101134.53;;;8.58;100.00
76424;BME280;65257;52.104;4.268;2023-03-19T06:06:02;101152.75;;;8.66;100.00
76424;BME280;65257;52.104;4.268;2023-03-19T06:08:32;101153.31;;;8.60;100.00
76424;BME280;65257;52.104;4.268;2023-03-19T06:10:58;101150.72;;;8.59;100.00
76424;BME280;65257;52.104;4.268;2023-03-19T06:13:24;101150.88;;;8.62;100.00
76424;BME280;65257;52.104;4.268;2023-03-19T06:15:53;101157.34;;;8.73;100.00
76424;BME280;65257;52.104;4.268;2023-03-19T06:18:18;101156.97;;;8.65;100.00
76424;BME280;65257;52.104;4.268;2023-03-19T06:20:47;101158.94;;;8.71;100.00
76424;BME280;65257;52.104;4.268;2023-03-19T06:23:34;101164.19;;;8.74;100.00
76424;BME280;65257;52.104;4.268;2023-03-19T06:26:06;101161.94;;;8.80;100.00
76424;BME280;65257;52.104;4.268;2023-03-19T06:28:32;101167.19;;;8.83;100.00
76424;BME280;65257;52.104;4.268;2023-03-19T06:31:09;101172.69;;;8.92;100.00
76424;BME280;65257;52.104;4.268;2023-03-19T06:33:36;101176.34;;;8.97;100.00
76424;BME280;65257;52.104;4.268;2023-03-19T06:36:04;101179.56;;;8.93;100.00
76424;BME280;65257;52.104;4.268;2023-03-19T06:38:30;101183.22;;;8.98;100.00
76424;BME280;65257;52.104;4.268;2023-03-19T06:40:55;101189.91;;;8.96;100.00
76424;BME280;65257;52.104;4.268;2023-03-19T06:43:21;101197.06;;;9.03;100.00
76424;BME280;65257;52.104;4.268;2023-03-19T06:45:48;101205.19;;;8.96;100.00
76424;BME280;65257;52.104;4.268;2023-03-19T06:48:28;101198.66;;;9.01;100.00
76424;BME280;65257;52.104;4.268;2023-03-19T06:50:54;101186.91;;;9.05;100.00
76424;BME280;65257;52.104;4.268;2023-03-19T06:53:19;101199.59;;;9.03;100.00
76424;BME280;65257;52.104;4.268;2023-03-19T06:55:48;101200.31;;;9.18;100.00
76424;BME280;65257;52.104;4.268;2023-03-19T06:58:13;101208.56;;;9.13;100.00
76424;BME280;65257;52.104;4.268;2023-03-19T07:00:38;101207.97;;;9.18;100.00
76424;BME280;65257;52.104;4.268;2023-03-19T07:03:10;101211.53;;;9.22;100.00
76424;BME280;65257;52.104;4.268;2023-03-19T07:05:39;101199.09;;;9.10;100.00
76424;BME280;65257;52.104;4.268;2023-03-19T07:08:05;101209.59;;;9.16;100.00
76424;BME280;65257;52.104;4.268;2023-03-19T07:10:38;101213.06;;;9.18;100.00
76424;BME280;65257;52.104;4.268;2023-03-19T07:13:05;101215.09;;;9.25;100.00
76424;BME280;65257;52.104;4.268;2023-03-19T07:15:31;101216.56;;;9.20;100.00
76424;BME280;65257;52.104;4.268;2023-03-19T07:18:07;101217.00;;;9.29;100.00
76424;BME280;65257;52.104;4.268;2023-03-19T07:20:38;101227.06;;;9.26;100.00
76424;BME280;65257;52.104;4.268;2023-03-19T07:23:07;101231.00;;;9.20;100.00
76424;BME280;65257;52.104;4.268;2023-03-19T07:25:32;101233.66;;;9.21;100.00
76424;BME280;65257;52.104;4.268;2023-03-19T07:27:58;101236.56;;;9.29;100.00
76424;BME280;65257;52.104;4.268;2023-03-19T07:30:24;101233.78;;;9.24;100.00
76424;BME280;65257;52.104;4.268;2023-03-19T07:32:49;101248.00;;;9.19;100.00
76424;BME280;65257;52.104;4.268;2023-03-19T07:35:17;101241.38;;;9.23;100.00
76424;BME280;65257;52.104;4.268;2023-03-19T07:37:43;101244.00;;;9.24;100.00
76424;BME280;65257;52.104;4.268;2023-03-19T07:40:09;101242.81;;;9.35;100.00
76424;BME280;65257;52.104;4.268;2023-03-19T07:42:35;101241.06;;;9.34;100.00
76424;BME280;65257;52.104;4.268;2023-03-19T07:45:07;101244.81;;;9.42;100.00
76424;BME280;65257;52.104;4.268;2023-03-19T07:47:39;101243.84;;;9.39;100.00
76424;BME280;65257;52.104;4.268;2023-03-19T07:50:06;101256.50;;;9.37;100.00
76424;BME280;65257;52.104;4.268;2023-03-19T07:52:36;101258.97;;;9.54;100.00
76424;BME280;65257;52.104;4.268;2023-03-19T07:55:03;101256.06;;;9.46;100.00
76424;BME280;65257;52.104;4.268;2023-03-19T07:57:30;101257.09;;;9.50;100.00
76424;BME280;65257;52.104;4.268;2023-03-19T07:59:57;101263.44;;;9.58;100.00
76424;BME280;65257;52.104;4.268;2023-03-19T08:02:23;101267.31;;;9.50;100.00
76424;BME280;65257;52.104;4.268;2023-03-19T08:04:49;101267.47;;;9.35;100.00
76424;BME280;65257;52.104;4.268;2023-03-19T08:07:14;101266.50;;;9.51;100.00
76424;BME280;65257;52.104;4.268;2023-03-19T08:09:41;101267.16;;;9.47;100.00
76424;BME280;65257;52.104;4.268;2023-03-19T08:12:08;101277.16;;;9.60;100.00
76424;BME280;65257;52.104;4.268;2023-03-19T08:14:37;101282.91;;;9.56;100.00
76424;BME280;65257;52.104;4.268;2023-03-19T08:17:02;101287.91;;;9.53;100.00
76424;BME280;65257;52.104;4.268;2023-03-19T08:19:28;101295.75;;;9.57;100.00
76424;BME280;65257;52.104;4.268;2023-03-19T08:21:56;101293.56;;;9.65;100.00
76424;BME280;65257;52.104;4.268;2023-03-19T08:24:25;101293.56;;;9.65;100.00
76424;BME280;65257;52.104;4.268;2023-03-19T08:26:55;101293.94;;;9.55;100.00
76424;BME280;65257;52.104;4.268;2023-03-19T08:29:26;101303.06;;;9.50;100.00
76424;BME280;65257;52.104;4.268;2023-03-19T08:31:55;101303.34;;;9.56;100.00
76424;BME280;65257;52.104;4.268;2023-03-19T08:34:24;101298.38;;;9.59;100.00
76424;BME280;65257;52.104;4.268;2023-03-19T08:36:49;101310.19;;;9.74;100.00
76424;BME280;65257;52.104;4.268;2023-03-19T08:39:21;101312.31;;;9.65;100.00
76424;BME280;65257;52.104;4.268;2023-03-19T08:41:46;101311.06;;;9.75;100.00
76424;BME280;65257;52.104;4.268;2023-03-19T08:44:12;101319.25;;;9.68;100.00
76424;BME280;65257;52.104;4.268;2023-03-19T08:46:41;101316.59;;;9.66;100.00
76424;BME280;65257;52.104;4.268;2023-03-19T08:49:07;101309.72;;;9.83;100.00
76424;BME280;65257;52.104;4.268;2023-03-19T08:51:35;101317.66;;;9.89;100.00
76424;BME280;65257;52.104;4.268;2023-03-19T08:54:04;101316.50;;;9.82;100.00
76424;BME280;65257;52.104;4.268;2023-03-19T08:56:30;101323.00;;;9.76;100.00
76424;BME280;65257;52.104;4.268;2023-03-19T08:58:56;101318.56;;;9.72;100.00
76424;BME280;65257;52.104;4.268;2023-03-19T09:01:24;101320.09;;;9.86;100.00
76424;BME280;65257;52.104;4.268;2023-03-19T09:03:50;101324.66;;;9.93;100.00
76424;BME280;65257;52.104;4.268;2023-03-19T09:06:16;101322.38;;;9.99;100.00
76424;BME280;65257;52.104;4.268;2023-03-19T09:08:46;101330.72;;;9.95;100.00
76424;BME280;65257;52.104;4.268;2023-03-19T09:11:13;101334.41;;;9.82;100.00
76424;BME280;65257;52.104;4.268;2023-03-19T09:13:46;101338.19;;;9.90;100.00
76424;BME280;65257;52.104;4.268;2023-03-19T09:16:12;101335.44;;;9.86;100.00
76424;BME280;65257;52.104;4.268;2023-03-19T09:18:40;101337.31;;;9.90;100.00
76424;BME280;65257;52.104;4.268;2023-03-19T09:21:09;101344.19;;;9.91;100.00
76424;BME280;65257;52.104;4.268;2023-03-19T09:23:35;101343.25;;;10.08;100.00
76424;BME280;65257;52.104;4.268;2023-03-19T09:26:00;101356.97;;;10.10;100.00
76424;BME280;65257;52.104;4.268;2023-03-19T09:28:26;101355.97;;;10.06;100.00
76424;BME280;65257;52.104;4.268;2023-03-19T09:30:52;101357.81;;;9.91;100.00
76424;BME280;65257;52.104;4.268;2023-03-19T09:33:20;101370.28;;;10.03;100.00
76424;BME280;65257;52.104;4.268;2023-03-19T09:35:50;101376.88;;;9.98;100.00
76424;BME280;65257;52.104;4.268;2023-03-19T09:38:17;101379.00;;;9.89;100.00
76424;BME280;65257;52.104;4.268;2023-03-19T09:40:47;101376.59;;;9.92;100.00
76424;BME280;65257;52.104;4.268;2023-03-19T09:46:03;101376.31;;;9.86;100.00
76424;BME280;65257;52.104;4.268;2023-03-19T09:51:29;101384.81;;;10.04;100.00
76424;BME280;65257;52.104;4.268;2023-03-19T09:54:06;101386.63;;;10.24;100.00
76424;BME280;65257;52.104;4.268;2023-03-19T09:56:39;101388.91;;;10.18;100.00
76424;BME280;65257;52.104;4.268;2023-03-19T09:59:07;101389.06;;;10.21;100.00
76424;BME280;65257;52.104;4.268;2023-03-19T10:01:36;101391.19;;;10.12;100.00
76424;BME280;65257;52.104;4.268;2023-03-19T10:07:28;101405.34;;;10.23;100.00
76424;BME280;65257;52.104;4.268;2023-03-19T10:13:10;101407.09;;;10.06;100.00
76424;BME280;65257;52.104;4.268;2023-03-19T10:15:41;101406.38;;;10.09;100.00
76424;BME280;65257;52.104;4.268;2023-03-19T10:18:10;101403.72;;;10.25;100.00
76424;BME280;65257;52.104;4.268;2023-03-19T10:26:24;101413.13;;;10.63;100.00
76424;BME280;65257;52.104;4.268;2023-03-19T10:29:07;101408.59;;;10.57;100.00
76424;BME280;65257;52.104;4.268;2023-03-19T10:31:54;101406.22;;;10.43;100.00
76424;BME280;65257;52.104;4.268;2023-03-19T10:36:58;101413.09;;;10.44;100.00
76424;BME280;65257;52.104;4.268;2023-03-19T10:39:24;101416.59;;;10.46;100.00
76424;BME280;65257;52.104;4.268;2023-03-19T10:47:50;101408.47;;;10.54;100.00
76424;BME280;65257;52.104;4.268;2023-03-19T10:50:22;101411.03;;;10.54;100.00
76424;BME280;65257;52.104;4.268;2023-03-19T10:56:06;101412.56;;;10.70;100.00
76424;BME280;65257;52.104;4.268;2023-03-19T10:59:35;101421.66;;;10.83;100.00
76424;BME280;65257;52.104;4.268;2023-03-19T11:02:13;101426.41;;;10.94;100.00
76424;BME280;65257;52.104;4.268;2023-03-19T11:04:40;101441.28;;;10.84;100.00
76424;BME280;65257;52.104;4.268;2023-03-19T11:07:20;101443.41;;;10.54;100.00
76424;BME280;65257;52.104;4.268;2023-03-19T11:09:49;101440.22;;;10.40;100.00
76424;BME280;65257;52.104;4.268;2023-03-19T11:12:21;101445.00;;;10.15;100.00
76424;BME280;65257;52.104;4.268;2023-03-19T11:14:53;101444.94;;;10.31;100.00
76424;BME280;65257;52.104;4.268;2023-03-19T11:17:45;101439.59;;;10.09;100.00
76424;BME280;65257;52.104;4.268;2023-03-19T11:20:33;101442.81;;;10.05;100.00
76424;BME280;65257;52.104;4.268;2023-03-19T11:23:11;101446.41;;;9.91;100.00
76424;BME280;65257;52.104;4.268;2023-03-19T11:25:41;101447.16;;;9.88;100.00
76424;BME280;65257;52.104;4.268;2023-03-19T11:28:16;101448.59;;;10.01;100.00
76424;BME280;65257;52.104;4.268;2023-03-19T11:48:33;101456.03;;;9.96;100.00
76424;BME280;65257;52.104;4.268;2023-03-19T11:51:12;101458.66;;;9.98;100.00
76424;BME280;65257;52.104;4.268;2023-03-19T11:57:02;101448.72;;;10.04;100.00
76424;BME280;65257;52.104;4.268;2023-03-19T12:10:36;101470.91;;;10.40;100.00
76424;BME280;65257;52.104;4.268;2023-03-19T12:13:27;101469.28;;;10.60;100.00
76424;BME280;65257;52.104;4.268;2023-03-19T12:16:26;101472.66;;;11.18;100.00
76424;BME280;65257;52.104;4.268;2023-03-19T12:22:21;101467.72;;;11.42;100.00
76424;BME280;65257;52.104;4.268;2023-03-19T12:28:05;101472.66;;;12.89;100.00
76424;BME280;65257;52.104;4.268;2023-03-19T12:36:50;101479.94;;;11.88;100.00
76424;BME280;65257;52.104;4.268;2023-03-19T12:39:35;101484.97;;;11.66;100.00
76424;BME280;65257;52.104;4.268;2023-03-19T12:42:04;101488.75;;;11.74;100.00
76424;BME280;65257;52.104;4.268;2023-03-19T12:44:36;101486.16;;;11.54;100.00
76424;BME280;65257;52.104;4.268;2023-03-19T12:47:11;101496.72;;;11.61;100.00
76424;BME280;65257;52.104;4.268;2023-03-19T12:49:48;101502.06;;;11.26;100.00
76424;BME280;65257;52.104;4.268;2023-03-19T12:52:34;101508.25;;;11.12;100.00
76424;BME280;65257;52.104;4.268;2023-03-19T12:55:16;101514.72;;;10.65;100.00
76424;BME280;65257;52.104;4.268;2023-03-19T12:58:05;101528.81;;;10.38;100.00
76424;BME280;65257;52.104;4.268;2023-03-19T13:00:55;101528.34;;;10.12;100.00
76424;BME280;65257;52.104;4.268;2023-03-19T13:03:32;101533.91;;;10.03;100.00
76424;BME280;65257;52.104;4.268;2023-03-19T13:06:15;101528.94;;;9.88;100.00
76424;BME280;65257;52.104;4.268;2023-03-19T13:08:57;101525.28;;;9.83;100.00
76424;BME280;65257;52.104;4.268;2023-03-19T13:19:46;101526.28;;;9.87;100.00
76424;BME280;65257;52.104;4.268;2023-03-19T13:22:20;101517.63;;;10.01;100.00
76424;BME280;65257;52.104;4.268;2023-03-19T13:24:47;101529.66;;;10.03;100.00
76424;BME280;65257;52.104;4.268;2023-03-19T13:27:33;101524.56;;;10.03;100.00
76424;BME280;65257;52.104;4.268;2023-03-19T13:30:10;101525.56;;;10.07;100.00
76424;BME280;65257;52.104;4.268;2023-03-19T13:32:52;101534.22;;;10.09;100.00
76424;BME280;65257;52.104;4.268;2023-03-19T13:35:43;101525.13;;;9.98;100.00
76424;BME280;65257;52.104;4.268;2023-03-19T13:41:03;101546.16;;;10.10;100.00
76424;BME280;65257;52.104;4.268;2023-03-19T13:48:51;101558.53;;;10.01;100.00
76424;BME280;65257;52.104;4.268;2023-03-19T13:51:37;101568.13;;;9.89;100.00
76424;BME280;65257;52.104;4.268;2023-03-19T13:59:28;101578.09;;;9.51;100.00
76424;BME280;65257;52.104;4.268;2023-03-19T14:01:59;101577.00;;;9.45;100.00
76424;BME280;65257;52.104;4.268;2023-03-19T14:04:29;101572.06;;;9.32;100.00
76424;BME280;65257;52.104;4.268;2023-03-19T14:07:16;101575.09;;;9.41;100.00
76424;BME280;65257;52.104;4.268;2023-03-19T14:10:03;101564.16;;;9.44;100.00
76424;BME280;65257;52.104;4.268;2023-03-19T14:12:39;101563.44;;;9.47;100.00
76424;BME280;65257;52.104;4.268;2023-03-19T14:22:56;101573.13;;;9.70;100.00
76424;BME280;65257;52.104;4.268;2023-03-19T14:31:05;101565.34;;;9.84;100.00
76424;BME280;65257;52.104;4.268;2023-03-19T14:33:43;101567.03;;;9.84;100.00
76424;BME280;65257;52.104;4.268;2023-03-19T14:36:17;101570.84;;;9.92;100.00
76424;BME280;65257;52.104;4.268;2023-03-19T14:38:55;101566.00;;;9.80;100.00
76424;BME280;65257;52.104;4.268;2023-03-19T14:41:26;101573.00;;;9.84;100.00
76424;BME280;65257;52.104;4.268;2023-03-19T14:46:41;101586.84;;;9.88;100.00
76424;BME280;65257;52.104;4.268;2023-03-19T14:52:51;101584.56;;;9.94;100.00
76424;BME280;65257;52.104;4.268;2023-03-19T14:55:19;101589.78;;;9.79;100.00
76424;BME280;65257;52.104;4.268;2023-03-19T14:57:46;101590.84;;;9.83;100.00
76424;BME280;65257;52.104;4.268;2023-03-19T15:00:16;101594.50;;;9.88;100.00